sensor_id;sensor_type;location;lat;lon;timestamp;P1;durP1;ratioP1;P2;durP2;ratioP2
6426;SDS011;3246;42.664;23.308;2022-07-23T00:02:17;12.73;;;6.72;;
6426;SDS011;3246;42.664;23.308;2022-07-23T00:04:44;7.20;;;6.32;;
6426;SDS011;3246;42.664;23.308;2022-07-23T00:07:10;8.98;;;6.70;;
6426;SDS011;3246;42.664;23.308;2022-07-23T00:09:37;9.60;;;6.30;;
6426;SDS011;3246;42.664;23.308;2022-07-23T00:12:04;10.43;;;6.55;;
6426;SDS011;3246;42.664;23.308;2022-07-23T00:14:32;6.80;;;5.95;;
6426;SDS011;3246;42.664;23.308;2022-07-23T00:16:58;12.13;;;6.72;;
6426;SDS011;3246;42.664;23.308;2022-07-23T00:19:25;6.60;;;6.00;;
6426;SDS011;3246;42.664;23.308;2022-07-23T00:21:51;6.35;;;5.80;;
6426;SDS011;3246;42.664;23.308;2022-07-23T00:24:18;6.53;;;5.63;;
6426;SDS011;3246;42.664;23.308;2022-07-23T00:26:44;7.63;;;6.32;;
6426;SDS011;3246;42.664;23.308;2022-07-23T00:29:11;9.32;;;6.38;;
6426;SDS011;3246;42.664;23.308;2022-07-23T00:31:39;10.93;;;6.72;;
6426;SDS011;3246;42.664;23.308;2022-07-23T00:34:06;9.95;;;6.20;;
6426;SDS011;3246;42.664;23.308;2022-07-23T00:36:32;8.93;;;6.47;;
6426;SDS011;3246;42.664;23.308;2022-07-23T00:38:59;9.25;;;6.57;;
6426;SDS011;3246;42.664;23.308;2022-07-23T00:41:25;6.75;;;5.53;;
6426;SDS011;3246;42.664;23.308;2022-07-23T00:43:52;6.28;;;5.63;;
6426;SDS011;3246;42.664;23.308;2022-07-23T00:46:19;7.30;;;6.35;;
6426;SDS011;3246;42.664;23.308;2022-07-23T00:48:47;6.70;;;6.18;;
6426;SDS011;3246;42.664;23.308;2022-07-23T00:51:14;6.93;;;6.22;;
6426;SDS011;3246;42.664;23.308;2022-07-23T00:53:41;8.80;;;6.45;;
6426;SDS011;3246;42.664;23.308;2022-07-23T00:56:07;6.82;;;5.93;;
6426;SDS011;3246;42.664;23.308;2022-07-23T00:58:34;10.20;;;6.18;;
6426;SDS011;3246;42.664;23.308;2022-07-23T01:01:01;7.18;;;6.47;;
6426;SDS011;3246;42.664;23.308;2022-07-23T01:03:28;7.78;;;5.65;;
6426;SDS011;3246;42.664;23.308;2022-07-23T01:05:56;8.23;;;7.25;;
6426;SDS011;3246;42.664;23.308;2022-07-23T01:08:23;6.55;;;5.95;;
6426;SDS011;3246;42.664;23.308;2022-07-23T01:10:50;11.82;;;6.45;;
6426;SDS011;3246;42.664;23.308;2022-07-23T01:13:17;16.75;;;6.40;;
6426;SDS011;3246;42.664;23.308;2022-07-23T01:15:44;7.97;;;6.28;;
6426;SDS011;3246;42.664;23.308;2022-07-23T01:18:11;8.80;;;6.38;;
6426;SDS011;3246;42.664;23.308;2022-07-23T01:20:37;6.70;;;6.05;;
6426;SDS011;3246;42.664;23.308;2022-07-23T01:23:05;10.02;;;7.03;;
6426;SDS011;3246;42.664;23.308;2022-07-23T01:25:32;8.63;;;6.93;;
6426;SDS011;3246;42.664;23.308;2022-07-23T01:27:59;7.50;;;6.13;;
6426;SDS011;3246;42.664;23.308;2022-07-23T01:30:25;7.82;;;7.05;;
6426;SDS011;3246;42.664;23.308;2022-07-23T01:32:52;8.38;;;7.68;;
6426;SDS011;3246;42.664;23.308;2022-07-23T01:35:18;8.43;;;6.78;;
6426;SDS011;3246;42.664;23.308;2022-07-23T01:37:45;8.55;;;7.25;;
6426;SDS011;3246;42.664;23.308;2022-07-23T01:40:13;12.85;;;7.00;;
6426;SDS011;3246;42.664;23.308;2022-07-23T01:42:39;10.43;;;6.97;;
6426;SDS011;3246;42.664;23.308;2022-07-23T01:45:06;8.57;;;7.00;;
6426;SDS011;3246;42.664;23.308;2022-07-23T01:47:33;10.32;;;6.63;;
6426;SDS011;3246;42.664;23.308;2022-07-23T01:50:00;9.15;;;6.60;;
6426;SDS011;3246;42.664;23.308;2022-07-23T01:52:26;6.68;;;5.97;;
6426;SDS011;3246;42.664;23.308;2022-07-23T01:54:53;8.73;;;6.05;;
6426;SDS011;3246;42.664;23.308;2022-07-23T01:57:21;9.60;;;6.28;;
6426;SDS011;3246;42.664;23.308;2022-07-23T01:59:47;9.75;;;6.50;;
6426;SDS011;3246;42.664;23.308;2022-07-23T02:02:14;8.43;;;6.47;;
6426;SDS011;3246;42.664;23.308;2022-07-23T02:04:40;7.32;;;6.00;;
6426;SDS011;3246;42.664;23.308;2022-07-23T02:07:07;7.47;;;6.38;;
6426;SDS011;3246;42.664;23.308;2022-07-23T02:09:33;8.98;;;6.13;;
6426;SDS011;3246;42.664;23.308;2022-07-23T02:12:00;9.80;;;6.18;;
6426;SDS011;3246;42.664;23.308;2022-07-23T02:14:28;20.20;;;6.75;;
6426;SDS011;3246;42.664;23.308;2022-07-23T02:16:55;6.93;;;6.20;;
6426;SDS011;3246;42.664;23.308;2022-07-23T02:19:21;9.25;;;6.18;;
6426;SDS011;3246;42.664;23.308;2022-07-23T02:21:48;10.02;;;6.32;;
6426;SDS011;3246;42.664;23.308;2022-07-23T02:24:14;9.45;;;6.45;;
6426;SDS011;3246;42.664;23.308;2022-07-23T02:26:41;8.10;;;6.80;;
6426;SDS011;3246;42.664;23.308;2022-07-23T02:29:08;8.65;;;7.43;;
6426;SDS011;3246;42.664;23.308;2022-07-23T02:31:36;8.75;;;7.80;;
6426;SDS011;3246;42.664;23.308;2022-07-23T02:34:02;9.35;;;8.00;;
6426;SDS011;3246;42.664;23.308;2022-07-23T02:36:29;8.63;;;7.57;;
6426;SDS011;3246;42.664;23.308;2022-07-23T02:38:56;8.07;;;7.38;;
6426;SDS011;3246;42.664;23.308;2022-07-23T02:41:22;7.88;;;7.07;;
6426;SDS011;3246;42.664;23.308;2022-07-23T02:43:49;7.80;;;7.00;;
6426;SDS011;3246;42.664;23.308;2022-07-23T02:46:16;8.65;;;7.13;;
6426;SDS011;3246;42.664;23.308;2022-07-23T02:48:43;9.68;;;7.00;;
6426;SDS011;3246;42.664;23.308;2022-07-23T02:51:10;14.40;;;7.22;;
6426;SDS011;3246;42.664;23.308;2022-07-23T02:53:36;7.88;;;7.00;;
6426;SDS011;3246;42.664;23.308;2022-07-23T02:56:03;7.55;;;6.93;;
6426;SDS011;3246;42.664;23.308;2022-07-23T02:58:30;12.05;;;6.82;;
6426;SDS011;3246;42.664;23.308;2022-07-23T03:00:56;17.73;;;7.63;;
6426;SDS011;3246;42.664;23.308;2022-07-23T03:03:23;15.00;;;7.38;;
6426;SDS011;3246;42.664;23.308;2022-07-23T03:05:51;9.35;;;7.22;;
6426;SDS011;3246;42.664;23.308;2022-07-23T03:08:17;8.90;;;7.55;;
6426;SDS011;3246;42.664;23.308;2022-07-23T03:10:44;7.65;;;6.45;;
6426;SDS011;3246;42.664;23.308;2022-07-23T03:13:10;8.57;;;7.70;;
6426;SDS011;3246;42.664;23.308;2022-07-23T03:15:37;11.80;;;6.85;;
6426;SDS011;3246;42.664;23.308;2022-07-23T03:18:03;9.20;;;7.63;;
6426;SDS011;3246;42.664;23.308;2022-07-23T03:20:30;12.93;;;7.72;;
6426;SDS011;3246;42.664;23.308;2022-07-23T03:22:58;9.35;;;6.80;;
6426;SDS011;3246;42.664;23.308;2022-07-23T03:25:25;12.38;;;7.72;;
6426;SDS011;3246;42.664;23.308;2022-07-23T03:27:51;9.27;;;7.18;;
6426;SDS011;3246;42.664;23.308;2022-07-23T03:30:18;14.75;;;8.20;;
6426;SDS011;3246;42.664;23.308;2022-07-23T03:32:44;10.15;;;8.90;;
6426;SDS011;3246;42.664;23.308;2022-07-23T03:35:11;8.95;;;7.88;;
6426;SDS011;3246;42.664;23.308;2022-07-23T03:37:37;9.77;;;8.75;;
6426;SDS011;3246;42.664;23.308;2022-07-23T03:40:07;9.93;;;7.90;;
6426;SDS011;3246;42.664;23.308;2022-07-23T03:42:34;16.88;;;9.15;;
6426;SDS011;3246;42.664;23.308;2022-07-23T03:45:02;9.70;;;7.78;;
6426;SDS011;3246;42.664;23.308;2022-07-23T03:47:29;8.57;;;7.88;;
6426;SDS011;3246;42.664;23.308;2022-07-23T03:49:55;12.90;;;8.32;;
6426;SDS011;3246;42.664;23.308;2022-07-23T03:52:22;9.02;;;7.43;;
6426;SDS011;3246;42.664;23.308;2022-07-23T03:54:48;12.05;;;7.82;;
6426;SDS011;3246;42.664;23.308;2022-07-23T03:57:16;9.68;;;6.80;;
6426;SDS011;3246;42.664;23.308;2022-07-23T03:59:43;12.27;;;7.95;;
6426;SDS011;3246;42.664;23.308;2022-07-23T04:02:09;8.13;;;7.43;;
6426;SDS011;3246;42.664;23.308;2022-07-23T04:04:36;7.65;;;6.90;;
6426;SDS011;3246;42.664;23.308;2022-07-23T04:07:02;13.73;;;7.95;;
6426;SDS011;3246;42.664;23.308;2022-07-23T04:09:29;8.38;;;7.32;;
6426;SDS011;3246;42.664;23.308;2022-07-23T04:11:55;9.77;;;8.45;;
6426;SDS011;3246;42.664;23.308;2022-07-23T04:14:23;11.77;;;8.82;;
6426;SDS011;3246;42.664;23.308;2022-07-23T04:16:50;13.13;;;7.68;;
6426;SDS011;3246;42.664;23.308;2022-07-23T04:19:16;10.60;;;7.70;;
6426;SDS011;3246;42.664;23.308;2022-07-23T04:21:43;8.10;;;7.38;;
6426;SDS011;3246;42.664;23.308;2022-07-23T04:24:09;13.77;;;9.85;;
6426;SDS011;3246;42.664;23.308;2022-07-23T04:26:36;8.40;;;7.55;;
6426;SDS011;3246;42.664;23.308;2022-07-23T04:29:02;8.27;;;7.43;;
6426;SDS011;3246;42.664;23.308;2022-07-23T04:31:30;9.07;;;8.00;;
6426;SDS011;3246;42.664;23.308;2022-07-23T04:33:57;11.43;;;9.20;;
6426;SDS011;3246;42.664;23.308;2022-07-23T04:36:23;10.40;;;8.77;;
6426;SDS011;3246;42.664;23.308;2022-07-23T04:38:50;12.50;;;8.70;;
6426;SDS011;3246;42.664;23.308;2022-07-23T04:41:16;9.57;;;7.60;;
6426;SDS011;3246;42.664;23.308;2022-07-23T04:43:43;10.65;;;9.05;;
6426;SDS011;3246;42.664;23.308;2022-07-23T04:46:10;11.35;;;9.23;;
6426;SDS011;3246;42.664;23.308;2022-07-23T04:48:38;9.85;;;8.73;;
6426;SDS011;3246;42.664;23.308;2022-07-23T04:51:04;8.65;;;7.85;;
6426;SDS011;3246;42.664;23.308;2022-07-23T04:53:31;11.32;;;8.35;;
6426;SDS011;3246;42.664;23.308;2022-07-23T04:55:57;12.73;;;10.00;;
6426;SDS011;3246;42.664;23.308;2022-07-23T04:58:24;13.27;;;8.93;;
6426;SDS011;3246;42.664;23.308;2022-07-23T05:00:50;15.90;;;8.15;;
6426;SDS011;3246;42.664;23.308;2022-07-23T05:03:17;10.38;;;8.13;;
6426;SDS011;3246;42.664;23.308;2022-07-23T05:05:45;16.00;;;13.27;;
6426;SDS011;3246;42.664;23.308;2022-07-23T05:08:11;20.95;;;11.70;;
6426;SDS011;3246;42.664;23.308;2022-07-23T05:10:38;12.98;;;8.73;;
6426;SDS011;3246;42.664;23.308;2022-07-23T05:13:04;9.70;;;7.93;;
6426;SDS011;3246;42.664;23.308;2022-07-23T05:15:31;11.05;;;8.27;;
6426;SDS011;3246;42.664;23.308;2022-07-23T05:17:58;8.90;;;8.10;;
6426;SDS011;3246;42.664;23.308;2022-07-23T05:20:24;9.75;;;7.97;;
6426;SDS011;3246;42.664;23.308;2022-07-23T05:22:52;13.88;;;8.30;;
6426;SDS011;3246;42.664;23.308;2022-07-23T05:25:19;12.32;;;9.27;;
6426;SDS011;3246;42.664;23.308;2022-07-23T05:27:45;11.20;;;8.63;;
6426;SDS011;3246;42.664;23.308;2022-07-23T05:30:12;14.98;;;8.48;;
6426;SDS011;3246;42.664;23.308;2022-07-23T05:32:38;10.07;;;8.90;;
6426;SDS011;3246;42.664;23.308;2022-07-23T05:35:05;9.80;;;7.88;;
6426;SDS011;3246;42.664;23.308;2022-07-23T05:37:32;9.80;;;7.90;;
6426;SDS011;3246;42.664;23.308;2022-07-23T05:40:01;16.63;;;7.85;;
6426;SDS011;3246;42.664;23.308;2022-07-23T05:42:28;22.15;;;8.45;;
6426;SDS011;3246;42.664;23.308;2022-07-23T05:44:54;14.60;;;8.85;;
6426;SDS011;3246;42.664;23.308;2022-07-23T05:47:21;9.85;;;8.30;;
6426;SDS011;3246;42.664;23.308;2022-07-23T05:49:48;10.95;;;9.10;;
6426;SDS011;3246;42.664;23.308;2022-07-23T05:52:14;9.63;;;8.35;;
6426;SDS011;3246;42.664;23.308;2022-07-23T05:54:41;17.02;;;10.05;;
6426;SDS011;3246;42.664;23.308;2022-07-23T05:57:09;9.70;;;8.70;;
6426;SDS011;3246;42.664;23.308;2022-07-23T05:59:36;10.93;;;8.35;;
6426;SDS011;3246;42.664;23.308;2022-07-23T06:02:02;9.43;;;8.43;;
6426;SDS011;3246;42.664;23.308;2022-07-23T06:04:29;8.68;;;7.88;;
6426;SDS011;3246;42.664;23.308;2022-07-23T06:06:55;13.00;;;8.60;;
6426;SDS011;3246;42.664;23.308;2022-07-23T06:09:22;10.23;;;8.77;;
6426;SDS011;3246;42.664;23.308;2022-07-23T06:11:48;11.70;;;8.10;;
6426;SDS011;3246;42.664;23.308;2022-07-23T06:14:16;17.10;;;9.13;;
6426;SDS011;3246;42.664;23.308;2022-07-23T06:16:43;10.80;;;8.50;;
6426;SDS011;3246;42.664;23.308;2022-07-23T06:19:09;13.20;;;7.90;;
6426;SDS011;3246;42.664;23.308;2022-07-23T06:21:36;19.67;;;9.27;;
6426;SDS011;3246;42.664;23.308;2022-07-23T06:24:03;18.17;;;8.63;;
6426;SDS011;3246;42.664;23.308;2022-07-23T06:26:29;7.80;;;7.05;;
6426;SDS011;3246;42.664;23.308;2022-07-23T06:28:56;16.38;;;8.93;;
6426;SDS011;3246;42.664;23.308;2022-07-23T06:31:24;17.50;;;9.88;;
6426;SDS011;3246;42.664;23.308;2022-07-23T06:33:50;13.75;;;9.98;;
6426;SDS011;3246;42.664;23.308;2022-07-23T06:36:17;11.13;;;9.73;;
6426;SDS011;3246;42.664;23.308;2022-07-23T06:38:43;12.73;;;9.23;;
6426;SDS011;3246;42.664;23.308;2022-07-23T06:41:10;11.45;;;9.27;;
6426;SDS011;3246;42.664;23.308;2022-07-23T06:43:36;11.45;;;9.20;;
6426;SDS011;3246;42.664;23.308;2022-07-23T06:46:03;134.95;;;18.25;;
6426;SDS011;3246;42.664;23.308;2022-07-23T06:48:31;37.10;;;11.48;;
6426;SDS011;3246;42.664;23.308;2022-07-23T06:50:59;14.68;;;9.35;;
6426;SDS011;3246;42.664;23.308;2022-07-23T06:53:26;15.52;;;8.93;;
6426;SDS011;3246;42.664;23.308;2022-07-23T06:55:52;16.83;;;9.02;;
6426;SDS011;3246;42.664;23.308;2022-07-23T06:58:19;15.13;;;9.50;;
6426;SDS011;3246;42.664;23.308;2022-07-23T07:00:46;12.13;;;9.15;;
6426;SDS011;3246;42.664;23.308;2022-07-23T07:03:13;16.33;;;13.27;;
6426;SDS011;3246;42.664;23.308;2022-07-23T07:05:41;9.75;;;8.82;;
6426;SDS011;3246;42.664;23.308;2022-07-23T07:08:07;9.20;;;8.02;;
6426;SDS011;3246;42.664;23.308;2022-07-23T07:10:34;8.52;;;7.72;;
6426;SDS011;3246;42.664;23.308;2022-07-23T07:13:00;9.98;;;9.05;;
6426;SDS011;3246;42.664;23.308;2022-07-23T07:15:27;11.07;;;8.40;;
6426;SDS011;3246;42.664;23.308;2022-07-23T07:17:53;13.30;;;9.27;;
6426;SDS011;3246;42.664;23.308;2022-07-23T07:20:20;11.10;;;8.95;;
6426;SDS011;3246;42.664;23.308;2022-07-23T07:22:48;14.43;;;8.73;;
6426;SDS011;3246;42.664;23.308;2022-07-23T07:25:14;9.10;;;8.02;;
6426;SDS011;3246;42.664;23.308;2022-07-23T07:27:41;19.77;;;7.97;;
6426;SDS011;3246;42.664;23.308;2022-07-23T07:30:09;13.32;;;9.35;;
6426;SDS011;3246;42.664;23.308;2022-07-23T07:32:36;15.32;;;8.95;;
6426;SDS011;3246;42.664;23.308;2022-07-23T07:35:02;11.48;;;7.82;;
6426;SDS011;3246;42.664;23.308;2022-07-23T07:37:29;15.13;;;8.32;;
6426;SDS011;3246;42.664;23.308;2022-07-23T07:39:57;11.30;;;9.15;;
6426;SDS011;3246;42.664;23.308;2022-07-23T07:42:24;10.98;;;9.57;;
6426;SDS011;3246;42.664;23.308;2022-07-23T07:44:50;9.25;;;8.38;;
6426;SDS011;3246;42.664;23.308;2022-07-23T07:47:17;18.58;;;8.52;;
6426;SDS011;3246;42.664;23.308;2022-07-23T07:49:43;11.60;;;8.30;;
6426;SDS011;3246;42.664;23.308;2022-07-23T07:52:10;10.48;;;7.63;;
6426;SDS011;3246;42.664;23.308;2022-07-23T07:54:37;11.07;;;7.32;;
6426;SDS011;3246;42.664;23.308;2022-07-23T07:57:04;11.75;;;8.40;;
6426;SDS011;3246;42.664;23.308;2022-07-23T07:59:31;10.85;;;9.23;;
6426;SDS011;3246;42.664;23.308;2022-07-23T08:01:58;15.57;;;9.23;;
6426;SDS011;3246;42.664;23.308;2022-07-23T08:04:24;14.23;;;8.65;;
6426;SDS011;3246;42.664;23.308;2022-07-23T08:06:51;13.02;;;8.50;;
6426;SDS011;3246;42.664;23.308;2022-07-23T08:09:17;15.07;;;8.05;;
6426;SDS011;3246;42.664;23.308;2022-07-23T08:11:44;7.90;;;7.15;;
6426;SDS011;3246;42.664;23.308;2022-07-23T08:14:12;9.85;;;8.40;;
6426;SDS011;3246;42.664;23.308;2022-07-23T08:16:38;10.77;;;7.70;;
6426;SDS011;3246;42.664;23.308;2022-07-23T08:19:05;9.57;;;8.18;;
6426;SDS011;3246;42.664;23.308;2022-07-23T08:21:31;13.68;;;7.40;;
6426;SDS011;3246;42.664;23.308;2022-07-23T08:23:58;9.02;;;6.97;;
6426;SDS011;3246;42.664;23.308;2022-07-23T08:26:24;13.43;;;10.82;;
6426;SDS011;3246;42.664;23.308;2022-07-23T08:28:51;17.17;;;12.43;;
6426;SDS011;3246;42.664;23.308;2022-07-23T08:31:19;11.90;;;10.38;;
6426;SDS011;3246;42.664;23.308;2022-07-23T08:33:45;19.67;;;13.68;;
6426;SDS011;3246;42.664;23.308;2022-07-23T08:36:12;13.00;;;8.65;;
6426;SDS011;3246;42.664;23.308;2022-07-23T08:38:38;16.98;;;9.25;;
6426;SDS011;3246;42.664;23.308;2022-07-23T08:41:05;13.60;;;10.93;;
6426;SDS011;3246;42.664;23.308;2022-07-23T08:43:33;14.07;;;9.40;;
6426;SDS011;3246;42.664;23.308;2022-07-23T08:46:01;11.25;;;7.93;;
6426;SDS011;3246;42.664;23.308;2022-07-23T08:48:30;17.60;;;9.35;;
6426;SDS011;3246;42.664;23.308;2022-07-23T08:50:58;14.70;;;9.40;;
6426;SDS011;3246;42.664;23.308;2022-07-23T08:53:26;16.95;;;9.65;;
6426;SDS011;3246;42.664;23.308;2022-07-23T08:55:53;19.20;;;10.68;;
6426;SDS011;3246;42.664;23.308;2022-07-23T08:58:20;13.07;;;8.18;;
6426;SDS011;3246;42.664;23.308;2022-07-23T09:00:47;12.05;;;9.20;;
6426;SDS011;3246;42.664;23.308;2022-07-23T09:03:15;10.27;;;8.52;;
6426;SDS011;3246;42.664;23.308;2022-07-23T09:05:43;10.32;;;8.25;;
6426;SDS011;3246;42.664;23.308;2022-07-23T09:08:10;10.65;;;9.55;;
6426;SDS011;3246;42.664;23.308;2022-07-23T09:10:47;13.55;;;7.90;;
6426;SDS011;3246;42.664;23.308;2022-07-23T09:13:23;15.25;;;8.48;;
6426;SDS011;3246;42.664;23.308;2022-07-23T09:15:50;11.45;;;7.78;;
6426;SDS011;3246;42.664;23.308;2022-07-23T09:18:17;13.57;;;9.27;;
6426;SDS011;3246;42.664;23.308;2022-07-23T09:20:45;13.63;;;8.43;;
6426;SDS011;3246;42.664;23.308;2022-07-23T09:23:12;19.20;;;11.43;;
6426;SDS011;3246;42.664;23.308;2022-07-23T09:25:38;15.05;;;12.88;;
6426;SDS011;3246;42.664;23.308;2022-07-23T09:28:05;14.52;;;9.48;;
6426;SDS011;3246;42.664;23.308;2022-07-23T09:30:32;23.65;;;19.65;;
6426;SDS011;3246;42.664;23.308;2022-07-23T09:33:03;12.80;;;10.27;;
6426;SDS011;3246;42.664;23.308;2022-07-23T09:35:43;10.88;;;8.70;;
6426;SDS011;3246;42.664;23.308;2022-07-23T09:38:11;17.58;;;8.50;;
6426;SDS011;3246;42.664;23.308;2022-07-23T09:40:37;9.32;;;8.43;;
6426;SDS011;3246;42.664;23.308;2022-07-23T09:43:04;9.48;;;7.43;;
6426;SDS011;3246;42.664;23.308;2022-07-23T09:45:30;13.50;;;7.20;;
6426;SDS011;3246;42.664;23.308;2022-07-23T09:48:09;11.18;;;7.35;;
6426;SDS011;3246;42.664;23.308;2022-07-23T09:50:36;10.48;;;9.07;;
6426;SDS011;3246;42.664;23.308;2022-07-23T09:53:02;12.18;;;9.88;;
6426;SDS011;3246;42.664;23.308;2022-07-23T09:55:32;10.40;;;7.93;;
6426;SDS011;3246;42.664;23.308;2022-07-23T09:58:01;10.13;;;8.93;;
6426;SDS011;3246;42.664;23.308;2022-07-23T10:00:28;14.07;;;8.32;;
6426;SDS011;3246;42.664;23.308;2022-07-23T10:02:56;11.60;;;9.32;;
6426;SDS011;3246;42.664;23.308;2022-07-23T10:05:23;20.75;;;15.90;;
6426;SDS011;3246;42.664;23.308;2022-07-23T10:07:50;16.23;;;13.60;;
6426;SDS011;3246;42.664;23.308;2022-07-23T10:10:17;19.67;;;16.45;;
6426;SDS011;3246;42.664;23.308;2022-07-23T10:12:46;20.08;;;15.77;;
6426;SDS011;3246;42.664;23.308;2022-07-23T10:15:39;11.93;;;9.50;;
6426;SDS011;3246;42.664;23.308;2022-07-23T10:18:06;10.55;;;7.30;;
6426;SDS011;3246;42.664;23.308;2022-07-23T10:20:32;12.85;;;8.00;;
6426;SDS011;3246;42.664;23.308;2022-07-23T10:23:00;6.53;;;5.90;;
6426;SDS011;3246;42.664;23.308;2022-07-23T10:25:30;14.10;;;11.57;;
6426;SDS011;3246;42.664;23.308;2022-07-23T10:28:09;7.93;;;6.03;;
6426;SDS011;3246;42.664;23.308;2022-07-23T10:30:43;11.07;;;6.70;;
6426;SDS011;3246;42.664;23.308;2022-07-23T10:33:17;9.73;;;6.88;;
6426;SDS011;3246;42.664;23.308;2022-07-23T10:35:47;9.00;;;6.82;;
6426;SDS011;3246;42.664;23.308;2022-07-23T10:38:18;13.38;;;7.45;;
6426;SDS011;3246;42.664;23.308;2022-07-23T10:40:52;16.48;;;6.88;;
6426;SDS011;3246;42.664;23.308;2022-07-23T10:43:21;8.07;;;6.00;;
6426;SDS011;3246;42.664;23.308;2022-07-23T10:45:47;9.32;;;7.35;;
6426;SDS011;3246;42.664;23.308;2022-07-23T10:48:15;8.95;;;6.43;;
6426;SDS011;3246;42.664;23.308;2022-07-23T10:50:41;7.50;;;6.13;;
6426;SDS011;3246;42.664;23.308;2022-07-23T10:53:09;12.02;;;7.32;;
6426;SDS011;3246;42.664;23.308;2022-07-23T10:55:41;10.45;;;6.90;;
6426;SDS011;3246;42.664;23.308;2022-07-23T10:58:07;11.70;;;7.57;;
6426;SDS011;3246;42.664;23.308;2022-07-23T11:00:35;15.13;;;12.07;;
6426;SDS011;3246;42.664;23.308;2022-07-23T11:03:03;15.32;;;11.70;;
6426;SDS011;3246;42.664;23.308;2022-07-23T11:05:41;18.48;;;16.55;;
6426;SDS011;3246;42.664;23.308;2022-07-23T11:10:46;16.80;;;13.25;;
6426;SDS011;3246;42.664;23.308;2022-07-23T11:13:25;11.75;;;9.82;;
6426;SDS011;3246;42.664;23.308;2022-07-23T11:19:03;14.95;;;9.75;;
6426;SDS011;3246;42.664;23.308;2022-07-23T11:21:48;12.23;;;8.05;;
6426;SDS011;3246;42.664;23.308;2022-07-23T11:24:16;9.57;;;5.63;;
6426;SDS011;3246;42.664;23.308;2022-07-23T11:26:56;7.22;;;5.35;;
6426;SDS011;3246;42.664;23.308;2022-07-23T11:29:39;17.88;;;5.30;;
6426;SDS011;3246;42.664;23.308;2022-07-23T11:32:06;6.28;;;5.68;;
6426;SDS011;3246;42.664;23.308;2022-07-23T11:34:35;8.95;;;5.28;;
6426;SDS011;3246;42.664;23.308;2022-07-23T11:37:03;12.30;;;6.88;;
6426;SDS011;3246;42.664;23.308;2022-07-23T11:39:30;13.38;;;6.00;;
6426;SDS011;3246;42.664;23.308;2022-07-23T11:41:57;11.27;;;5.28;;
6426;SDS011;3246;42.664;23.308;2022-07-23T11:44:24;8.18;;;5.00;;
6426;SDS011;3246;42.664;23.308;2022-07-23T11:46:54;8.50;;;5.78;;
6426;SDS011;3246;42.664;23.308;2022-07-23T11:49:21;10.50;;;5.53;;
6426;SDS011;3246;42.664;23.308;2022-07-23T11:51:48;20.45;;;10.80;;
6426;SDS011;3246;42.664;23.308;2022-07-23T11:54:28;16.88;;;7.40;;
6426;SDS011;3246;42.664;23.308;2022-07-23T11:56:55;19.27;;;7.88;;
6426;SDS011;3246;42.664;23.308;2022-07-23T11:59:21;18.65;;;6.00;;
6426;SDS011;3246;42.664;23.308;2022-07-23T12:01:58;14.85;;;6.40;;
6426;SDS011;3246;42.664;23.308;2022-07-23T12:04:25;19.25;;;5.63;;
6426;SDS011;3246;42.664;23.308;2022-07-23T12:06:53;10.60;;;6.82;;
6426;SDS011;3246;42.664;23.308;2022-07-23T12:09:19;10.10;;;4.53;;
6426;SDS011;3246;42.664;23.308;2022-07-23T12:11:58;9.32;;;5.43;;
6426;SDS011;3246;42.664;23.308;2022-07-23T12:14:25;9.48;;;5.40;;
6426;SDS011;3246;42.664;23.308;2022-07-23T12:17:06;12.43;;;5.90;;
6426;SDS011;3246;42.664;23.308;2022-07-23T12:19:33;15.45;;;6.63;;
6426;SDS011;3246;42.664;23.308;2022-07-23T12:22:01;12.35;;;4.85;;
6426;SDS011;3246;42.664;23.308;2022-07-23T12:24:28;11.30;;;5.97;;
6426;SDS011;3246;42.664;23.308;2022-07-23T12:27:10;11.25;;;6.38;;
6426;SDS011;3246;42.664;23.308;2022-07-23T12:29:37;14.55;;;5.30;;
6426;SDS011;3246;42.664;23.308;2022-07-23T12:32:16;10.95;;;5.38;;
6426;SDS011;3246;42.664;23.308;2022-07-23T12:34:42;14.57;;;4.85;;
6426;SDS011;3246;42.664;23.308;2022-07-23T12:40:23;14.27;;;6.50;;
6426;SDS011;3246;42.664;23.308;2022-07-23T12:42:50;10.30;;;5.97;;
6426;SDS011;3246;42.664;23.308;2022-07-23T12:45:17;15.32;;;5.57;;
6426;SDS011;3246;42.664;23.308;2022-07-23T12:47:54;14.63;;;5.05;;
6426;SDS011;3246;42.664;23.308;2022-07-23T12:50:31;12.82;;;5.80;;
6426;SDS011;3246;42.664;23.308;2022-07-23T12:53:02;10.20;;;5.50;;
6426;SDS011;3246;42.664;23.308;2022-07-23T12:55:30;16.40;;;6.70;;
6426;SDS011;3246;42.664;23.308;2022-07-23T12:58:02;11.52;;;5.97;;
6426;SDS011;3246;42.664;23.308;2022-07-23T13:00:29;10.15;;;6.10;;
6426;SDS011;3246;42.664;23.308;2022-07-23T13:02:56;13.48;;;7.75;;
6426;SDS011;3246;42.664;23.308;2022-07-23T13:05:23;7.43;;;5.82;;
6426;SDS011;3246;42.664;23.308;2022-07-23T13:07:49;15.52;;;6.70;;
6426;SDS011;3246;42.664;23.308;2022-07-23T13:10:16;13.30;;;6.85;;
6426;SDS011;3246;42.664;23.308;2022-07-23T13:12:44;19.30;;;7.15;;
6426;SDS011;3246;42.664;23.308;2022-07-23T13:15:10;10.82;;;4.93;;
6426;SDS011;3246;42.664;23.308;2022-07-23T13:17:37;16.02;;;6.88;;
6426;SDS011;3246;42.664;23.308;2022-07-23T13:20:04;12.10;;;5.47;;
6426;SDS011;3246;42.664;23.308;2022-07-23T13:22:30;10.52;;;5.50;;
6426;SDS011;3246;42.664;23.308;2022-07-23T13:24:57;11.80;;;5.75;;
6426;SDS011;3246;42.664;23.308;2022-07-23T13:27:24;11.02;;;4.95;;
6426;SDS011;3246;42.664;23.308;2022-07-23T13:29:51;16.05;;;4.82;;
6426;SDS011;3246;42.664;23.308;2022-07-23T13:32:18;8.80;;;5.25;;
6426;SDS011;3246;42.664;23.308;2022-07-23T13:34:44;12.05;;;4.95;;
6426;SDS011;3246;42.664;23.308;2022-07-23T13:37:11;15.23;;;5.47;;
6426;SDS011;3246;42.664;23.308;2022-07-23T13:39:38;6.93;;;4.82;;
6426;SDS011;3246;42.664;23.308;2022-07-23T13:42:05;10.02;;;5.82;;
6426;SDS011;3246;42.664;23.308;2022-07-23T13:44:31;16.92;;;9.88;;
6426;SDS011;3246;42.664;23.308;2022-07-23T13:46:59;10.15;;;5.85;;
6426;SDS011;3246;42.664;23.308;2022-07-23T13:49:25;14.05;;;8.98;;
6426;SDS011;3246;42.664;23.308;2022-07-23T13:51:52;11.32;;;7.55;;
6426;SDS011;3246;42.664;23.308;2022-07-23T13:54:19;14.00;;;8.20;;
6426;SDS011;3246;42.664;23.308;2022-07-23T13:56:45;11.98;;;4.50;;
6426;SDS011;3246;42.664;23.308;2022-07-23T13:59:12;9.25;;;5.80;;
6426;SDS011;3246;42.664;23.308;2022-07-23T14:01:39;8.52;;;5.20;;
6426;SDS011;3246;42.664;23.308;2022-07-23T14:04:07;10.70;;;5.75;;
6426;SDS011;3246;42.664;23.308;2022-07-23T14:06:34;9.75;;;4.78;;
6426;SDS011;3246;42.664;23.308;2022-07-23T14:09:00;10.65;;;5.47;;
6426;SDS011;3246;42.664;23.308;2022-07-23T14:11:27;9.32;;;4.93;;
6426;SDS011;3246;42.664;23.308;2022-07-23T14:13:55;9.40;;;5.45;;
6426;SDS011;3246;42.664;23.308;2022-07-23T14:16:23;7.43;;;4.07;;
6426;SDS011;3246;42.664;23.308;2022-07-23T14:18:50;9.70;;;4.80;;
6426;SDS011;3246;42.664;23.308;2022-07-23T14:21:18;15.18;;;10.55;;
6426;SDS011;3246;42.664;23.308;2022-07-23T14:23:44;19.10;;;12.25;;
6426;SDS011;3246;42.664;23.308;2022-07-23T14:26:11;10.40;;;5.82;;
6426;SDS011;3246;42.664;23.308;2022-07-23T14:28:37;10.57;;;6.00;;
6426;SDS011;3246;42.664;23.308;2022-07-23T14:31:04;5.97;;;4.60;;
6426;SDS011;3246;42.664;23.308;2022-07-23T14:33:30;12.68;;;6.13;;
6426;SDS011;3246;42.664;23.308;2022-07-23T14:35:57;14.73;;;7.50;;
6426;SDS011;3246;42.664;23.308;2022-07-23T14:38:25;10.15;;;7.20;;
6426;SDS011;3246;42.664;23.308;2022-07-23T14:40:54;11.70;;;7.90;;
6426;SDS011;3246;42.664;23.308;2022-07-23T14:43:21;8.55;;;6.18;;
6426;SDS011;3246;42.664;23.308;2022-07-23T14:45:47;10.20;;;5.93;;
6426;SDS011;3246;42.664;23.308;2022-07-23T14:48:14;8.20;;;5.00;;
6426;SDS011;3246;42.664;23.308;2022-07-23T14:50:41;14.27;;;6.68;;
6426;SDS011;3246;42.664;23.308;2022-07-23T14:53:07;10.73;;;5.78;;
6426;SDS011;3246;42.664;23.308;2022-07-23T14:55:35;11.27;;;6.95;;
6426;SDS011;3246;42.664;23.308;2022-07-23T14:58:02;10.63;;;5.90;;
6426;SDS011;3246;42.664;23.308;2022-07-23T15:00:28;13.63;;;5.35;;
6426;SDS011;3246;42.664;23.308;2022-07-23T15:02:55;12.30;;;5.50;;